sensor_id;sensor_type;location;lat;lon;timestamp;P1;durP1;ratioP1;P2;durP2;ratioP2
49177;SDS011;35016;55.674;37.468;2024-01-16T00:00:16;12.07;;;6.05;;
49177;SDS011;35016;55.674;37.468;2024-01-16T00:03:20;11.30;;;6.60;;
49177;SDS011;35016;55.674;37.468;2024-01-16T00:05:47;12.00;;;6.05;;
49177;SDS011;35016;55.674;37.468;2024-01-16T00:08:34;11.02;;;5.78;;
49177;SDS011;35016;55.674;37.468;2024-01-16T00:11:02;12.93;;;6.90;;
49177;SDS011;35016;55.674;37.468;2024-01-16T00:13:48;12.02;;;6.55;;
49177;SDS011;35016;55.674;37.468;2024-01-16T00:16:18;11.25;;;5.53;;
49177;SDS011;35016;55.674;37.468;2024-01-16T00:19:03;11.88;;;5.75;;
49177;SDS011;35016;55.674;37.468;2024-01-16T00:24:18;11.98;;;5.65;;
49177;SDS011;35016;55.674;37.468;2024-01-16T00:26:45;11.77;;;6.47;;
49177;SDS011;35016;55.674;37.468;2024-01-16T00:29:13;12.95;;;6.18;;
49177;SDS011;35016;55.674;37.468;2024-01-16T00:31:40;11.13;;;5.25;;
49177;SDS011;35016;55.674;37.468;2024-01-16T00:34:07;12.90;;;5.90;;
49177;SDS011;35016;55.674;37.468;2024-01-16T00:36:35;13.27;;;6.10;;
49177;SDS011;35016;55.674;37.468;2024-01-16T00:39:02;12.75;;;6.57;;
49177;SDS011;35016;55.674;37.468;2024-01-16T00:41:29;13.13;;;6.13;;
49177;SDS011;35016;55.674;37.468;2024-01-16T00:43:57;11.40;;;5.57;;
49177;SDS011;35016;55.674;37.468;2024-01-16T00:46:41;12.05;;;5.78;;
49177;SDS011;35016;55.674;37.468;2024-01-16T00:49:10;13.13;;;7.03;;
49177;SDS011;35016;55.674;37.468;2024-01-16T00:51:38;12.23;;;5.55;;
49177;SDS011;35016;55.674;37.468;2024-01-16T00:54:23;11.43;;;7.03;;
49177;SDS011;35016;55.674;37.468;2024-01-16T00:56:50;13.15;;;5.57;;
49177;SDS011;35016;55.674;37.468;2024-01-16T00:59:37;11.85;;;6.13;;
49177;SDS011;35016;55.674;37.468;2024-01-16T01:02:04;11.88;;;6.78;;
49177;SDS011;35016;55.674;37.468;2024-01-16T01:04:32;13.18;;;6.03;;
49177;SDS011;35016;55.674;37.468;2024-01-16T01:06:59;11.35;;;6.38;;
49177;SDS011;35016;55.674;37.468;2024-01-16T01:09:27;12.68;;;6.55;;
49177;SDS011;35016;55.674;37.468;2024-01-16T01:12:13;12.13;;;5.15;;
49177;SDS011;35016;55.674;37.468;2024-01-16T01:14:59;12.10;;;6.60;;
49177;SDS011;35016;55.674;37.468;2024-01-16T01:17:27;11.93;;;6.57;;
49177;SDS011;35016;55.674;37.468;2024-01-16T01:20:11;12.73;;;6.50;;
49177;SDS011;35016;55.674;37.468;2024-01-16T01:22:39;11.63;;;6.43;;
49177;SDS011;35016;55.674;37.468;2024-01-16T01:25:07;12.15;;;5.63;;
49177;SDS011;35016;55.674;37.468;2024-01-16T01:27:34;10.13;;;5.13;;
49177;SDS011;35016;55.674;37.468;2024-01-16T01:30:02;10.65;;;5.50;;
49177;SDS011;35016;55.674;37.468;2024-01-16T01:32:30;13.93;;;7.05;;
49177;SDS011;35016;55.674;37.468;2024-01-16T01:34:58;13.68;;;6.03;;
49177;SDS011;35016;55.674;37.468;2024-01-16T01:37:47;11.23;;;5.85;;
49177;SDS011;35016;55.674;37.468;2024-01-16T01:40:14;12.07;;;6.15;;
49177;SDS011;35016;55.674;37.468;2024-01-16T01:42:43;12.77;;;6.60;;
49177;SDS011;35016;55.674;37.468;2024-01-16T01:45:11;11.75;;;6.05;;
49177;SDS011;35016;55.674;37.468;2024-01-16T01:47:56;12.23;;;5.25;;
49177;SDS011;35016;55.674;37.468;2024-01-16T01:50:23;11.30;;;5.43;;
49177;SDS011;35016;55.674;37.468;2024-01-16T01:52:51;13.57;;;5.70;;
49177;SDS011;35016;55.674;37.468;2024-01-16T01:55:18;12.13;;;5.68;;
49177;SDS011;35016;55.674;37.468;2024-01-16T01:58:02;12.48;;;6.18;;
49177;SDS011;35016;55.674;37.468;2024-01-16T02:00:50;11.18;;;6.13;;
49177;SDS011;35016;55.674;37.468;2024-01-16T02:03:19;12.85;;;6.55;;
49177;SDS011;35016;55.674;37.468;2024-01-16T02:05:48;13.95;;;7.18;;
49177;SDS011;35016;55.674;37.468;2024-01-16T02:08:53;13.88;;;6.55;;
49177;SDS011;35016;55.674;37.468;2024-01-16T02:11:20;11.73;;;5.32;;
49177;SDS011;35016;55.674;37.468;2024-01-16T02:13:48;12.18;;;5.63;;
49177;SDS011;35016;55.674;37.468;2024-01-16T02:16:17;14.45;;;6.65;;
49177;SDS011;35016;55.674;37.468;2024-01-16T02:18:46;13.07;;;6.35;;
49177;SDS011;35016;55.674;37.468;2024-01-16T02:21:15;12.57;;;6.13;;
49177;SDS011;35016;55.674;37.468;2024-01-16T02:23:47;12.48;;;6.10;;
49177;SDS011;35016;55.674;37.468;2024-01-16T02:26:14;11.13;;;5.72;;
49177;SDS011;35016;55.674;37.468;2024-01-16T02:28:42;12.00;;;6.47;;
49177;SDS011;35016;55.674;37.468;2024-01-16T02:31:10;14.57;;;7.43;;
49177;SDS011;35016;55.674;37.468;2024-01-16T02:33:37;11.90;;;5.90;;
49177;SDS011;35016;55.674;37.468;2024-01-16T02:36:21;12.82;;;5.95;;
49177;SDS011;35016;55.674;37.468;2024-01-16T02:38:49;10.88;;;5.85;;
49177;SDS011;35016;55.674;37.468;2024-01-16T02:41:16;13.27;;;6.05;;
49177;SDS011;35016;55.674;37.468;2024-01-16T02:43:44;12.30;;;5.40;;
49177;SDS011;35016;55.674;37.468;2024-01-16T02:46:13;12.32;;;6.30;;
49177;SDS011;35016;55.674;37.468;2024-01-16T02:48:41;12.75;;;5.88;;
49177;SDS011;35016;55.674;37.468;2024-01-16T02:51:09;11.10;;;5.32;;
49177;SDS011;35016;55.674;37.468;2024-01-16T02:53:37;11.52;;;5.80;;
49177;SDS011;35016;55.674;37.468;2024-01-16T02:56:04;10.70;;;5.10;;
49177;SDS011;35016;55.674;37.468;2024-01-16T02:58:31;10.98;;;5.55;;
49177;SDS011;35016;55.674;37.468;2024-01-16T03:00:59;12.90;;;5.53;;
49177;SDS011;35016;55.674;37.468;2024-01-16T03:03:45;13.15;;;5.65;;
49177;SDS011;35016;55.674;37.468;2024-01-16T03:06:21;11.30;;;5.95;;
49177;SDS011;35016;55.674;37.468;2024-01-16T03:08:52;11.00;;;5.18;;
49177;SDS011;35016;55.674;37.468;2024-01-16T03:11:36;11.18;;;5.43;;
49177;SDS011;35016;55.674;37.468;2024-01-16T03:14:05;10.65;;;5.32;;
49177;SDS011;35016;55.674;37.468;2024-01-16T03:16:32;12.93;;;7.18;;
49177;SDS011;35016;55.674;37.468;2024-01-16T03:19:18;10.52;;;4.85;;
49177;SDS011;35016;55.674;37.468;2024-01-16T03:21:48;13.65;;;6.22;;
49177;SDS011;35016;55.674;37.468;2024-01-16T03:24:34;10.27;;;5.38;;
49177;SDS011;35016;55.674;37.468;2024-01-16T03:27:20;13.10;;;5.97;;
49177;SDS011;35016;55.674;37.468;2024-01-16T03:29:47;11.02;;;5.57;;
49177;SDS011;35016;55.674;37.468;2024-01-16T03:32:14;13.68;;;5.97;;
49177;SDS011;35016;55.674;37.468;2024-01-16T03:34:42;12.15;;;5.78;;
49177;SDS011;35016;55.674;37.468;2024-01-16T03:37:09;10.23;;;5.40;;
49177;SDS011;35016;55.674;37.468;2024-01-16T03:39:37;10.00;;;5.82;;
49177;SDS011;35016;55.674;37.468;2024-01-16T03:42:05;14.48;;;6.35;;
49177;SDS011;35016;55.674;37.468;2024-01-16T03:44:32;12.90;;;6.20;;
49177;SDS011;35016;55.674;37.468;2024-01-16T03:47:23;13.10;;;6.22;;
49177;SDS011;35016;55.674;37.468;2024-01-16T03:50:27;11.68;;;5.63;;
49177;SDS011;35016;55.674;37.468;2024-01-16T03:52:55;11.60;;;5.55;;
49177;SDS011;35016;55.674;37.468;2024-01-16T03:55:22;10.55;;;5.75;;
49177;SDS011;35016;55.674;37.468;2024-01-16T03:58:27;11.93;;;6.25;;
49177;SDS011;35016;55.674;37.468;2024-01-16T04:00:56;10.32;;;5.40;;
49177;SDS011;35016;55.674;37.468;2024-01-16T04:03:42;14.05;;;5.90;;
49177;SDS011;35016;55.674;37.468;2024-01-16T04:06:15;14.45;;;6.85;;
49177;SDS011;35016;55.674;37.468;2024-01-16T04:09:05;11.88;;;6.10;;
49177;SDS011;35016;55.674;37.468;2024-01-16T04:14:38;12.93;;;6.30;;
49177;SDS011;35016;55.674;37.468;2024-01-16T04:17:05;13.32;;;6.80;;
49177;SDS011;35016;55.674;37.468;2024-01-16T04:19:32;13.52;;;6.07;;
49177;SDS011;35016;55.674;37.468;2024-01-16T04:22:00;11.98;;;6.18;;
49177;SDS011;35016;55.674;37.468;2024-01-16T04:24:46;12.02;;;5.80;;
49177;SDS011;35016;55.674;37.468;2024-01-16T04:27:31;12.48;;;6.15;;
49177;SDS011;35016;55.674;37.468;2024-01-16T04:29:59;11.30;;;5.85;;
49177;SDS011;35016;55.674;37.468;2024-01-16T04:32:26;13.20;;;6.15;;
49177;SDS011;35016;55.674;37.468;2024-01-16T04:34:54;13.35;;;6.75;;
49177;SDS011;35016;55.674;37.468;2024-01-16T04:37:21;12.57;;;6.40;;
49177;SDS011;35016;55.674;37.468;2024-01-16T04:42:35;12.73;;;7.07;;
49177;SDS011;35016;55.674;37.468;2024-01-16T04:45:02;14.65;;;7.13;;
49177;SDS011;35016;55.674;37.468;2024-01-16T04:47:30;13.65;;;6.97;;
49177;SDS011;35016;55.674;37.468;2024-01-16T04:53:39;14.70;;;7.63;;
49177;SDS011;35016;55.674;37.468;2024-01-16T04:56:07;13.15;;;7.40;;
49177;SDS011;35016;55.674;37.468;2024-01-16T04:58:35;16.17;;;8.23;;
49177;SDS011;35016;55.674;37.468;2024-01-16T05:03:48;12.77;;;6.20;;
49177;SDS011;35016;55.674;37.468;2024-01-16T05:06:15;13.40;;;6.38;;
49177;SDS011;35016;55.674;37.468;2024-01-16T05:08:45;14.88;;;7.72;;
49177;SDS011;35016;55.674;37.468;2024-01-16T05:11:12;12.18;;;7.20;;
49177;SDS011;35016;55.674;37.468;2024-01-16T05:13:39;12.00;;;6.72;;
49177;SDS011;35016;55.674;37.468;2024-01-16T05:16:07;14.43;;;7.10;;
49177;SDS011;35016;55.674;37.468;2024-01-16T05:18:34;17.70;;;8.02;;
49177;SDS011;35016;55.674;37.468;2024-01-16T05:23:49;14.48;;;7.43;;
49177;SDS011;35016;55.674;37.468;2024-01-16T05:26:17;14.60;;;7.45;;
49177;SDS011;35016;55.674;37.468;2024-01-16T05:28:44;14.38;;;7.20;;
49177;SDS011;35016;55.674;37.468;2024-01-16T05:31:11;13.63;;;7.07;;
49177;SDS011;35016;55.674;37.468;2024-01-16T05:36:26;16.40;;;8.27;;
49177;SDS011;35016;55.674;37.468;2024-01-16T05:38:53;14.95;;;6.90;;
49177;SDS011;35016;55.674;37.468;2024-01-16T05:41:21;12.68;;;7.43;;
49177;SDS011;35016;55.674;37.468;2024-01-16T05:43:48;13.27;;;6.53;;
49177;SDS011;35016;55.674;37.468;2024-01-16T05:46:34;13.10;;;7.25;;
49177;SDS011;35016;55.674;37.468;2024-01-16T05:49:20;15.13;;;7.28;;
49177;SDS011;35016;55.674;37.468;2024-01-16T05:52:05;12.43;;;6.88;;
49177;SDS011;35016;55.674;37.468;2024-01-16T05:54:32;15.30;;;8.30;;
49177;SDS011;35016;55.674;37.468;2024-01-16T05:56:59;12.93;;;7.32;;
49177;SDS011;35016;55.674;37.468;2024-01-16T06:02:33;13.80;;;7.63;;
49177;SDS011;35016;55.674;37.468;2024-01-16T06:05:17;16.63;;;8.25;;
49177;SDS011;35016;55.674;37.468;2024-01-16T06:07:47;13.48;;;7.50;;
49177;SDS011;35016;55.674;37.468;2024-01-16T06:10:14;11.52;;;6.85;;
49177;SDS011;35016;55.674;37.468;2024-01-16T06:12:42;11.93;;;6.88;;
49177;SDS011;35016;55.674;37.468;2024-01-16T06:15:09;13.40;;;6.95;;
49177;SDS011;35016;55.674;37.468;2024-01-16T06:17:38;14.13;;;7.68;;
49177;SDS011;35016;55.674;37.468;2024-01-16T06:20:06;13.57;;;8.10;;
49177;SDS011;35016;55.674;37.468;2024-01-16T06:22:34;16.10;;;9.15;;
49177;SDS011;35016;55.674;37.468;2024-01-16T06:25:01;14.13;;;8.13;;
49177;SDS011;35016;55.674;37.468;2024-01-16T06:27:47;13.95;;;7.78;;
49177;SDS011;35016;55.674;37.468;2024-01-16T06:30:15;13.77;;;7.30;;
49177;SDS011;35016;55.674;37.468;2024-01-16T06:32:42;13.93;;;7.45;;
49177;SDS011;35016;55.674;37.468;2024-01-16T06:35:11;14.43;;;6.68;;
49177;SDS011;35016;55.674;37.468;2024-01-16T06:37:57;14.00;;;8.10;;
49177;SDS011;35016;55.674;37.468;2024-01-16T06:40:25;12.93;;;7.82;;
49177;SDS011;35016;55.674;37.468;2024-01-16T06:45:55;13.02;;;7.32;;
49177;SDS011;35016;55.674;37.468;2024-01-16T06:48:41;14.82;;;7.18;;
49177;SDS011;35016;55.674;37.468;2024-01-16T06:51:08;14.82;;;7.18;;
49177;SDS011;35016;55.674;37.468;2024-01-16T06:53:37;14.70;;;6.80;;
49177;SDS011;35016;55.674;37.468;2024-01-16T06:56:06;14.98;;;7.60;;
49177;SDS011;35016;55.674;37.468;2024-01-16T06:58:53;12.68;;;7.15;;
49177;SDS011;35016;55.674;37.468;2024-01-16T07:01:41;18.25;;;8.32;;
49177;SDS011;35016;55.674;37.468;2024-01-16T07:04:26;14.18;;;6.82;;
49177;SDS011;35016;55.674;37.468;2024-01-16T07:06:53;16.75;;;8.52;;
49177;SDS011;35016;55.674;37.468;2024-01-16T07:15:47;14.57;;;5.93;;
49177;SDS011;35016;55.674;37.468;2024-01-16T07:18:15;16.33;;;7.60;;
49177;SDS011;35016;55.674;37.468;2024-01-16T07:21:01;14.48;;;7.60;;
49177;SDS011;35016;55.674;37.468;2024-01-16T07:23:29;14.95;;;7.47;;
49177;SDS011;35016;55.674;37.468;2024-01-16T07:26:15;13.18;;;7.40;;
49177;SDS011;35016;55.674;37.468;2024-01-16T07:28:43;12.75;;;7.03;;
49177;SDS011;35016;55.674;37.468;2024-01-16T07:31:11;13.95;;;7.97;;
49177;SDS011;35016;55.674;37.468;2024-01-16T07:33:38;11.45;;;6.43;;
49177;SDS011;35016;55.674;37.468;2024-01-16T07:36:07;15.80;;;7.82;;
49177;SDS011;35016;55.674;37.468;2024-01-16T07:38:35;11.90;;;6.20;;
49177;SDS011;35016;55.674;37.468;2024-01-16T07:41:03;14.93;;;7.93;;
49177;SDS011;35016;55.674;37.468;2024-01-16T07:43:31;14.00;;;7.03;;
49177;SDS011;35016;55.674;37.468;2024-01-16T07:46:17;15.00;;;7.03;;
49177;SDS011;35016;55.674;37.468;2024-01-16T07:48:45;15.38;;;7.60;;
49177;SDS011;35016;55.674;37.468;2024-01-16T07:51:13;14.48;;;7.55;;
49177;SDS011;35016;55.674;37.468;2024-01-16T07:53:40;17.63;;;7.47;;
49177;SDS011;35016;55.674;37.468;2024-01-16T07:56:07;12.45;;;6.43;;
49177;SDS011;35016;55.674;37.468;2024-01-16T07:58:34;14.73;;;6.90;;
49177;SDS011;35016;55.674;37.468;2024-01-16T08:01:01;13.10;;;6.55;;
49177;SDS011;35016;55.674;37.468;2024-01-16T08:03:29;13.13;;;7.22;;
49177;SDS011;35016;55.674;37.468;2024-01-16T08:05:57;13.55;;;7.03;;
49177;SDS011;35016;55.674;37.468;2024-01-16T08:08:44;12.50;;;6.93;;
49177;SDS011;35016;55.674;37.468;2024-01-16T08:11:11;14.48;;;6.53;;
49177;SDS011;35016;55.674;37.468;2024-01-16T08:13:39;12.38;;;5.70;;
49177;SDS011;35016;55.674;37.468;2024-01-16T08:16:06;13.05;;;6.13;;
49177;SDS011;35016;55.674;37.468;2024-01-16T08:18:56;11.25;;;6.10;;
49177;SDS011;35016;55.674;37.468;2024-01-16T08:21:23;11.35;;;5.82;;
49177;SDS011;35016;55.674;37.468;2024-01-16T08:26:54;14.48;;;6.65;;
49177;SDS011;35016;55.674;37.468;2024-01-16T08:29:24;13.68;;;6.88;;
49177;SDS011;35016;55.674;37.468;2024-01-16T08:31:51;12.52;;;6.28;;
49177;SDS011;35016;55.674;37.468;2024-01-16T08:34:21;10.02;;;5.18;;
49177;SDS011;35016;55.674;37.468;2024-01-16T08:36:49;12.55;;;6.53;;
49177;SDS011;35016;55.674;37.468;2024-01-16T08:39:35;12.65;;;5.75;;
49177;SDS011;35016;55.674;37.468;2024-01-16T08:42:03;13.02;;;6.65;;
49177;SDS011;35016;55.674;37.468;2024-01-16T08:44:31;11.57;;;6.22;;
49177;SDS011;35016;55.674;37.468;2024-01-16T08:46:59;14.20;;;7.40;;
49177;SDS011;35016;55.674;37.468;2024-01-16T08:49:27;11.32;;;6.28;;
49177;SDS011;35016;55.674;37.468;2024-01-16T08:51:54;16.50;;;6.82;;
49177;SDS011;35016;55.674;37.468;2024-01-16T08:54:40;13.55;;;6.63;;
49177;SDS011;35016;55.674;37.468;2024-01-16T08:57:07;13.30;;;7.35;;
49177;SDS011;35016;55.674;37.468;2024-01-16T08:59:37;12.18;;;6.28;;
49177;SDS011;35016;55.674;37.468;2024-01-16T09:02:06;12.80;;;6.68;;
49177;SDS011;35016;55.674;37.468;2024-01-16T09:08:00;11.38;;;5.88;;
49177;SDS011;35016;55.674;37.468;2024-01-16T09:10:29;12.77;;;6.97;;
49177;SDS011;35016;55.674;37.468;2024-01-16T09:13:14;14.77;;;7.18;;
49177;SDS011;35016;55.674;37.468;2024-01-16T09:15:44;14.45;;;6.97;;
49177;SDS011;35016;55.674;37.468;2024-01-16T09:18:12;12.48;;;7.10;;
49177;SDS011;35016;55.674;37.468;2024-01-16T09:20:39;12.15;;;7.05;;
49177;SDS011;35016;55.674;37.468;2024-01-16T09:23:07;12.95;;;5.88;;
49177;SDS011;35016;55.674;37.468;2024-01-16T09:25:34;12.57;;;6.40;;
49177;SDS011;35016;55.674;37.468;2024-01-16T09:28:02;10.82;;;5.43;;
49177;SDS011;35016;55.674;37.468;2024-01-16T09:30:30;14.52;;;6.50;;
49177;SDS011;35016;55.674;37.468;2024-01-16T09:32:57;12.25;;;6.25;;
49177;SDS011;35016;55.674;37.468;2024-01-16T09:35:27;10.23;;;5.63;;
49177;SDS011;35016;55.674;37.468;2024-01-16T09:38:11;11.85;;;6.07;;
49177;SDS011;35016;55.674;37.468;2024-01-16T09:40:38;13.73;;;6.88;;
49177;SDS011;35016;55.674;37.468;2024-01-16T09:43:05;17.00;;;7.65;;
49177;SDS011;35016;55.674;37.468;2024-01-16T09:45:51;14.63;;;6.35;;
49177;SDS011;35016;55.674;37.468;2024-01-16T09:48:21;15.23;;;6.63;;
49177;SDS011;35016;55.674;37.468;2024-01-16T09:50:48;10.82;;;5.93;;
49177;SDS011;35016;55.674;37.468;2024-01-16T09:53:15;13.20;;;6.22;;
49177;SDS011;35016;55.674;37.468;2024-01-16T09:55:42;12.80;;;5.05;;
49177;SDS011;35016;55.674;37.468;2024-01-16T09:58:10;12.13;;;5.80;;
49177;SDS011;35016;55.674;37.468;2024-01-16T10:00:42;11.98;;;5.82;;
49177;SDS011;35016;55.674;37.468;2024-01-16T10:03:13;16.70;;;7.60;;
49177;SDS011;35016;55.674;37.468;2024-01-16T10:05:41;13.57;;;6.43;;
49177;SDS011;35016;55.674;37.468;2024-01-16T10:08:09;12.68;;;6.25;;
49177;SDS011;35016;55.674;37.468;2024-01-16T10:10:36;12.80;;;6.28;;
49177;SDS011;35016;55.674;37.468;2024-01-16T10:13:22;12.43;;;6.05;;
49177;SDS011;35016;55.674;37.468;2024-01-16T10:15:49;12.43;;;6.25;;
49177;SDS011;35016;55.674;37.468;2024-01-16T10:18:23;10.20;;;5.97;;
49177;SDS011;35016;55.674;37.468;2024-01-16T10:20:52;11.20;;;6.15;;
49177;SDS011;35016;55.674;37.468;2024-01-16T10:23:37;13.10;;;7.10;;
49177;SDS011;35016;55.674;37.468;2024-01-16T10:26:23;12.02;;;5.97;;
49177;SDS011;35016;55.674;37.468;2024-01-16T10:28:50;12.25;;;5.82;;
49177;SDS011;35016;55.674;37.468;2024-01-16T10:31:18;13.95;;;7.80;;
49177;SDS011;35016;55.674;37.468;2024-01-16T10:33:45;13.38;;;6.68;;
49177;SDS011;35016;55.674;37.468;2024-01-16T10:36:16;11.93;;;6.43;;
49177;SDS011;35016;55.674;37.468;2024-01-16T10:38:45;12.57;;;6.03;;
49177;SDS011;35016;55.674;37.468;2024-01-16T10:43:41;11.50;;;6.28;;
49177;SDS011;35016;55.674;37.468;2024-01-16T10:49:04;14.38;;;6.95;;
49177;SDS011;35016;55.674;37.468;2024-01-16T10:51:31;14.80;;;7.40;;
49177;SDS011;35016;55.674;37.468;2024-01-16T10:54:00;11.57;;;6.20;;
49177;SDS011;35016;55.674;37.468;2024-01-16T10:56:36;14.55;;;6.50;;
49177;SDS011;35016;55.674;37.468;2024-01-16T10:59:24;13.88;;;7.32;;
49177;SDS011;35016;55.674;37.468;2024-01-16T11:01:53;12.30;;;6.50;;
49177;SDS011;35016;55.674;37.468;2024-01-16T11:07:15;14.70;;;6.82;;
49177;SDS011;35016;55.674;37.468;2024-01-16T11:09:44;13.88;;;7.85;;
49177;SDS011;35016;55.674;37.468;2024-01-16T11:12:30;14.75;;;6.78;;
49177;SDS011;35016;55.674;37.468;2024-01-16T11:17:46;13.23;;;5.68;;
49177;SDS011;35016;55.674;37.468;2024-01-16T11:20:13;12.68;;;7.15;;
49177;SDS011;35016;55.674;37.468;2024-01-16T11:22:58;12.30;;;6.20;;
49177;SDS011;35016;55.674;37.468;2024-01-16T11:25:45;11.02;;;5.47;;
49177;SDS011;35016;55.674;37.468;2024-01-16T11:28:12;15.25;;;6.85;;
49177;SDS011;35016;55.674;37.468;2024-01-16T11:30:57;12.95;;;6.65;;
49177;SDS011;35016;55.674;37.468;2024-01-16T11:39:06;14.18;;;7.20;;
49177;SDS011;35016;55.674;37.468;2024-01-16T11:41:53;13.07;;;5.65;;
49177;SDS011;35016;55.674;37.468;2024-01-16T11:47:15;12.32;;;6.97;;
49177;SDS011;35016;55.674;37.468;2024-01-16T11:49:45;13.52;;;6.47;;
49177;SDS011;35016;55.674;37.468;2024-01-16T11:52:40;11.95;;;6.63;;
49177;SDS011;35016;55.674;37.468;2024-01-16T11:55:30;14.43;;;6.68;;
49177;SDS011;35016;55.674;37.468;2024-01-16T12:01:12;14.60;;;6.80;;
49177;SDS011;35016;55.674;37.468;2024-01-16T12:03:39;12.63;;;6.55;;
49177;SDS011;35016;55.674;37.468;2024-01-16T12:06:06;12.70;;;7.32;;
49177;SDS011;35016;55.674;37.468;2024-01-16T12:09:11;12.23;;;5.85;;
49177;SDS011;35016;55.674;37.468;2024-01-16T12:12:33;12.90;;;6.88;;
49177;SDS011;35016;55.674;37.468;2024-01-16T12:15:00;13.70;;;6.03;;
49177;SDS011;35016;55.674;37.468;2024-01-16T12:17:57;12.85;;;6.60;;
49177;SDS011;35016;55.674;37.468;2024-01-16T12:21:12;11.95;;;5.22;;
49177;SDS011;35016;55.674;37.468;2024-01-16T12:26:47;11.93;;;5.80;;
49177;SDS011;35016;55.674;37.468;2024-01-16T12:33:14;12.00;;;5.55;;
49177;SDS011;35016;55.674;37.468;2024-01-16T12:35:43;11.00;;;5.03;;
49177;SDS011;35016;55.674;37.468;2024-01-16T12:38:18;11.98;;;5.88;;
49177;SDS011;35016;55.674;37.468;2024-01-16T12:40:49;11.73;;;6.90;;
49177;SDS011;35016;55.674;37.468;2024-01-16T12:43:17;12.32;;;7.05;;
49177;SDS011;35016;55.674;37.468;2024-01-16T12:45:45;13.23;;;6.88;;
49177;SDS011;35016;55.674;37.468;2024-01-16T12:48:12;13.32;;;7.47;;
49177;SDS011;35016;55.674;37.468;2024-01-16T12:50:59;13.60;;;6.95;;
49177;SDS011;35016;55.674;37.468;2024-01-16T12:53:32;14.57;;;7.32;;
49177;SDS011;35016;55.674;37.468;2024-01-16T12:56:01;12.40;;;6.20;;
49177;SDS011;35016;55.674;37.468;2024-01-16T12:59:11;12.00;;;6.95;;
49177;SDS011;35016;55.674;37.468;2024-01-16T13:01:40;12.13;;;6.28;;
49177;SDS011;35016;55.674;37.468;2024-01-16T13:04:10;12.15;;;6.80;;
49177;SDS011;35016;55.674;37.468;2024-01-16T13:06:38;13.57;;;7.20;;
49177;SDS011;35016;55.674;37.468;2024-01-16T13:09:11;12.32;;;7.15;;
49177;SDS011;35016;55.674;37.468;2024-01-16T13:12:21;11.00;;;6.25;;
49177;SDS011;35016;55.674;37.468;2024-01-16T13:15:07;14.60;;;8.15;;
49177;SDS011;35016;55.674;37.468;2024-01-16T13:21:20;14.02;;;7.10;;
49177;SDS011;35016;55.674;37.468;2024-01-16T13:26:52;14.05;;;6.07;;
49177;SDS011;35016;55.674;37.468;2024-01-16T13:29:21;11.95;;;5.93;;
49177;SDS011;35016;55.674;37.468;2024-01-16T13:31:48;12.35;;;6.30;;
49177;SDS011;35016;55.674;37.468;2024-01-16T13:34:23;13.68;;;7.22;;
49177;SDS011;35016;55.674;37.468;2024-01-16T13:40:21;11.88;;;6.30;;
49177;SDS011;35016;55.674;37.468;2024-01-16T13:42:51;14.00;;;6.03;;
49177;SDS011;35016;55.674;37.468;2024-01-16T13:45:18;15.43;;;8.32;;
49177;SDS011;35016;55.674;37.468;2024-01-16T13:47:47;13.70;;;7.30;;
49177;SDS011;35016;55.674;37.468;2024-01-16T13:50:14;12.75;;;6.68;;
49177;SDS011;35016;55.674;37.468;2024-01-16T13:52:44;13.60;;;7.40;;
49177;SDS011;35016;55.674;37.468;2024-01-16T13:55:11;13.55;;;8.02;;
49177;SDS011;35016;55.674;37.468;2024-01-16T14:00:42;13.10;;;7.53;;
49177;SDS011;35016;55.674;37.468;2024-01-16T14:03:09;12.90;;;6.70;;
49177;SDS011;35016;55.674;37.468;2024-01-16T14:05:53;13.40;;;6.13;;
49177;SDS011;35016;55.674;37.468;2024-01-16T14:08:24;13.23;;;6.95;;
49177;SDS011;35016;55.674;37.468;2024-01-16T14:10:54;13.88;;;6.72;;
49177;SDS011;35016;55.674;37.468;2024-01-16T14:16:28;15.00;;;7.47;;
49177;SDS011;35016;55.674;37.468;2024-01-16T14:19:13;13.00;;;6.93;;
49177;SDS011;35016;55.674;37.468;2024-01-16T14:21:57;12.18;;;6.22;;
49177;SDS011;35016;55.674;37.468;2024-01-16T14:24:34;14.43;;;7.63;;
49177;SDS011;35016;55.674;37.468;2024-01-16T14:27:01;13.60;;;6.82;;
49177;SDS011;35016;55.674;37.468;2024-01-16T14:29:28;16.73;;;8.65;;
49177;SDS011;35016;55.674;37.468;2024-01-16T14:32:01;15.38;;;7.35;;
49177;SDS011;35016;55.674;37.468;2024-01-16T14:34:29;14.43;;;7.50;;
49177;SDS011;35016;55.674;37.468;2024-01-16T14:38:07;13.43;;;7.45;;
49177;SDS011;35016;55.674;37.468;2024-01-16T14:41:15;16.08;;;8.13;;
49177;SDS011;35016;55.674;37.468;2024-01-16T14:43:50;14.80;;;8.80;;
49177;SDS011;35016;55.674;37.468;2024-01-16T14:46:17;18.58;;;9.15;;
49177;SDS011;35016;55.674;37.468;2024-01-16T14:48:50;17.23;;;8.77;;
49177;SDS011;35016;55.674;37.468;2024-01-16T14:51:18;16.98;;;8.10;;
49177;SDS011;35016;55.674;37.468;2024-01-16T14:53:45;16.08;;;8.68;;
49177;SDS011;35016;55.674;37.468;2024-01-16T14:56:51;13.45;;;8.15;;
49177;SDS011;35016;55.674;37.468;2024-01-16T14:59:42;16.23;;;9.45;;
49177;SDS011;35016;55.674;37.468;2024-01-16T15:02:30;17.63;;;9.43;;
49177;SDS011;35016;55.674;37.468;2024-01-16T15:04:59;19.20;;;9.27;;
49177;SDS011;35016;55.674;37.468;2024-01-16T15:07:45;16.40;;;9.93;;
49177;SDS011;35016;55.674;37.468;2024-01-16T15:10:21;18.00;;;9.88;;
49177;SDS011;35016;55.674;37.468;2024-01-16T15:12:48;15.27;;;9.90;;
49177;SDS011;35016;55.674;37.468;2024-01-16T15:15:15;18.77;;;9.55;;
49177;SDS011;35016;55.674;37.468;2024-01-16T15:17:45;18.60;;;10.32;;
49177;SDS011;35016;55.674;37.468;2024-01-16T15:20:17;15.48;;;9.88;;
49177;SDS011;35016;55.674;37.468;2024-01-16T15:22:47;20.42;;;11.77;;
49177;SDS011;35016;55.674;37.468;2024-01-16T15:25:24;17.58;;;10.90;;
49177;SDS011;35016;55.674;37.468;2024-01-16T15:27:52;17.98;;;10.27;;
49177;SDS011;35016;55.674;37.468;2024-01-16T15:30:37;17.02;;;10.40;;
49177;SDS011;35016;55.674;37.468;2024-01-16T15:33:04;17.38;;;9.48;;
49177;SDS011;35016;55.674;37.468;2024-01-16T15:35:32;20.88;;;11.38;;
49177;SDS011;35016;55.674;37.468;2024-01-16T15:38:35;21.58;;;11.32;;
49177;SDS011;35016;55.674;37.468;2024-01-16T15:41:03;16.88;;;10.32;;
49177;SDS011;35016;55.674;37.468;2024-01-16T15:43:30;17.30;;;10.27;;
49177;SDS011;35016;55.674;37.468;2024-01-16T15:45:57;17.30;;;10.18;;
49177;SDS011;35016;55.674;37.468;2024-01-16T15:48:43;18.17;;;10.23;;
49177;SDS011;35016;55.674;37.468;2024-01-16T16:10:05;15.75;;;8.85;;
49177;SDS011;35016;55.674;37.468;2024-01-16T16:12:33;15.57;;;9.57;;
49177;SDS011;35016;55.674;37.468;2024-01-16T16:15:01;17.17;;;11.05;;
49177;SDS011;35016;55.674;37.468;2024-01-16T16:17:30;19.42;;;10.48;;
49177;SDS011;35016;55.674;37.468;2024-01-16T16:19:57;17.02;;;9.18;;
49177;SDS011;35016;55.674;37.468;2024-01-16T16:22:33;16.70;;;9.38;;
49177;SDS011;35016;55.674;37.468;2024-01-16T16:25:16;17.08;;;10.25;;
49177;SDS011;35016;55.674;37.468;2024-01-16T16:27:44;14.30;;;9.65;;
49177;SDS011;35016;55.674;37.468;2024-01-16T16:30:12;16.88;;;9.45;;
49177;SDS011;35016;55.674;37.468;2024-01-16T16:32:40;18.63;;;10.27;;
49177;SDS011;35016;55.674;37.468;2024-01-16T16:35:09;19.90;;;10.07;;
49177;SDS011;35016;55.674;37.468;2024-01-16T16:37:55;17.10;;;10.55;;
49177;SDS011;35016;55.674;37.468;2024-01-16T16:40:22;16.50;;;10.52;;